Time;durP1;ratioP1;P1;durP2;ratioP2;P2;SDS_P1;SDS_P2;PMS_P1;PMS_P2;Temp;Humidity;BMP_temperature;BMP_pressure;BME280_temperature;BME280_humidity;BME280_pressure;Samples;Min_cycle;Max_cycle;Signal;HPM_P1;HPM_P2
2023/10/01 00:01:00;;;;;;;12.40;6.40;;;;;;;;;;5038360;28;20505;-53
2023/10/01 00:03:28;;;;;;;6.63;3.87;;;;;;;;;;5038158;28;20451;-53
2023/10/01 00:05:56;;;;;;;9.37;4.60;;;15.40;99.90;;;;;;5038003;28;20459;-52
2023/10/01 00:08:23;;;;;;;7.77;3.80;;;15.50;99.90;;;;;;5040027;28;20448;-53
2023/10/01 00:10:50;;;;;;;6.93;3.87;;;15.30;99.90;;;;;;5039843;28;20448;-49
2023/10/01 00:13:20;;;;;;;8.80;4.20;;;15.50;99.90;;;;;;5039920;28;20484;-52
2023/10/01 00:15:50;;;;;;;7.60;3.90;;;15.40;99.90;;;;;;5039945;28;20448;-49
2023/10/01 00:18:17;;;;;;;6.23;3.83;;;15.40;99.90;;;;;;5040359;28;20515;-48
2023/10/01 00:20:46;;;;;;;11.27;5.40;;;15.30;99.90;;;;;;5041634;28;20473;-50
2023/10/01 00:23:14;;;;;;;5.57;4.33;;;15.40;99.90;;;;;;5040991;28;20483;-48
2023/10/01 00:25:43;;;;;;;4.73;3.67;;;15.30;99.90;;;;;;5040522;28;20460;-50
2023/10/01 00:28:10;;;;;;;8.27;3.70;;;15.50;99.90;;;;;;5040344;28;20448;-48
2023/10/01 00:30:37;;;;;;;6.33;3.57;;;15.30;99.90;;;;;;5040662;28;20467;-46
2023/10/01 00:33:06;;;;;;;9.40;3.50;;;15.20;99.90;;;;;;5043170;28;20551;-48
2023/10/01 00:35:33;;;;;;;8.30;5.40;;;15.50;99.90;;;;;;5043849;28;20466;-52
2023/10/01 00:38:00;;;;;;;10.73;4.00;;;;;;;;;;5041479;28;20984;-52
2023/10/01 00:40:30;;;;;;;10.97;4.47;;;15.40;99.90;;;;;;5039333;28;20484;-52
2023/10/01 00:42:57;;;;;;;5.13;3.60;;;15.20;99.90;;;;;;5044138;28;20421;-50
2023/10/01 00:45:24;;;;;;;7.63;4.27;;;15.20;99.90;;;;;;5039482;28;20468;-52
2023/10/01 00:47:52;;;;;;;7.53;3.77;;;15.20;99.90;;;;;;5039730;28;20539;-52
2023/10/01 00:50:21;;;;;;;5.30;3.03;;;15.30;99.90;;;;;;5039334;28;20539;-52
2023/10/01 00:52:49;;;;;;;5.17;3.60;;;15.20;99.90;;;;;;5038881;28;20460;-53
2023/10/01 00:55:16;;;;;;;4.50;3.10;;;15.20;99.90;;;;;;5038509;28;20547;-54
2023/10/01 00:57:45;;;;;;;6.87;4.93;;;15.50;99.90;;;;;;5038870;28;20472;-49
2023/10/01 01:00:16;;;;;;;9.43;3.90;;;15.30;99.90;;;;;;5039083;28;20455;-56
2023/10/01 01:02:57;;;;;;;7.23;3.70;;;15.10;99.90;;;;;;5040664;28;20463;-50
2023/10/01 01:05:34;;;;;;;6.40;3.60;;;15.10;99.90;;;;;;5039336;28;20424;-52
2023/10/01 01:08:07;;;;;;;8.10;3.50;;;15.30;99.90;;;;;;5039777;28;20482;-49
2023/10/01 01:10:40;;;;;;;5.13;3.03;;;15.20;99.90;;;;;;5039091;28;20518;-53
2023/10/01 01:13:08;;;;;;;7.10;3.70;;;15.20;99.90;;;;;;5038597;28;20500;-50
2023/10/01 01:15:36;;;;;;;5.47;3.40;;;;;;;;;;5038423;28;20797;-51
2023/10/01 01:18:07;;;;;;;6.97;3.57;;;15.10;99.90;;;;;;5038984;28;20472;-50
2023/10/01 01:20:43;;;;;;;8.23;3.90;;;15.10;99.90;;;;;;5039554;28;20455;-51
2023/10/01 01:23:15;;;;;;;4.17;3.10;;;15.00;99.90;;;;;;5039500;28;20428;-51
2023/10/01 01:25:43;;;;;;;10.90;3.53;;;15.00;99.90;;;;;;5039336;28;20467;-51
2023/10/01 01:28:15;;;;;;;4.90;2.80;;;;;;;;;;5040406;28;20936;-53
2023/10/01 01:30:43;;;;;;;5.50;3.47;;;15.10;99.90;;;;;;5041179;28;20515;-52
2023/10/01 01:33:12;;;;;;;7.30;3.07;;;14.90;99.90;;;;;;5039364;28;20463;-54
2023/10/01 01:35:42;;;;;;;8.77;3.30;;;15.00;99.90;;;;;;5038357;28;20905;-54
2023/10/01 01:38:10;;;;;;;6.60;3.30;;;15.10;99.90;;;;;;5038777;28;20542;-51
2023/10/01 01:40:40;;;;;;;4.60;2.87;;;15.30;99.90;;;;;;5038350;28;20451;-50
2023/10/01 01:43:15;;;;;;;4.07;3.03;;;15.20;99.90;;;;;;5038022;28;20440;-53
2023/10/01 01:45:44;;;;;;;4.03;2.87;;;15.10;99.90;;;;;;5038096;28;20439;-52
2023/10/01 01:48:26;;;;;;;8.67;2.97;;;15.10;99.90;;;;;;5037788;28;20760;-53
2023/10/01 01:50:54;;;;;;;5.00;3.30;;;14.60;99.90;;;;;;5038111;28;20471;-53
2023/10/01 01:53:21;;;;;;;5.60;3.33;;;15.10;99.90;;;;;;5038396;28;20506;-53
2023/10/01 01:55:54;;;;;;;4.00;2.80;;;14.90;99.90;;;;;;5038211;28;20475;-54
2023/10/01 01:58:24;;;;;;;9.00;3.67;;;15.70;99.90;;;;;;5038270;28;20533;-49
2023/10/01 02:03:46;;;;;;;10.00;2.77;;;15.30;99.90;;;;;;5018987;28;20432;-51
2023/10/01 02:06:14;;;;;;;4.77;3.70;;;15.10;99.90;;;;;;5041593;28;20436;-52
2023/10/01 02:08:48;;;;;;;7.07;2.90;;;15.10;99.90;;;;;;5038542;28;20984;-50
2023/10/01 02:11:18;;;;;;;5.80;2.70;;;15.20;99.90;;;;;;5037836;28;20534;-53
2023/10/01 02:13:47;;;;;;;3.13;2.83;;;15.10;99.90;;;;;;5038996;28;20555;-50
2023/10/01 02:16:35;;;;;;;7.90;5.70;;;15.40;99.90;;;;;;5038443;28;20456;-55
2023/10/01 02:19:18;;;;;;;4.30;2.63;;;15.00;99.90;;;;;;5038226;28;20455;-52
2023/10/01 02:21:57;;;;;;;8.20;3.53;;;15.10;99.90;;;;;;5042843;28;20428;-49
2023/10/01 02:24:37;;;;;;;5.50;2.57;;;;;;;;;;5042131;28;20468;-51
2023/10/01 02:27:05;;;;;;;6.40;2.77;;;15.10;99.90;;;;;;5042828;28;20451;-51
2023/10/01 02:29:45;;;;;;;8.03;2.70;;;14.90;99.90;;;;;;5042490;28;20820;-53
2023/10/01 02:32:14;;;;;;;3.93;2.90;;;14.50;99.90;;;;;;5038035;28;20818;-53
2023/10/01 02:34:42;;;;;;;3.47;2.80;;;15.00;99.90;;;;;;5037840;28;20495;-53
2023/10/01 02:37:15;;;;;;;4.60;2.53;;;14.90;99.90;;;;;;5037410;28;20452;-53
2023/10/01 02:39:41;;;;;;;4.27;3.27;;;14.90;99.90;;;;;;5038226;28;20436;-48
2023/10/01 02:42:21;;;;;;;6.20;3.40;;;15.10;99.90;;;;;;5038515;28;20775;-53
2023/10/01 02:44:48;;;;;;;4.73;3.10;;;15.00;99.90;;;;;;5037683;28;20232;-48
2023/10/01 02:47:19;;;;;;;5.30;2.50;;;15.10;99.90;;;;;;5038157;28;20505;-51
2023/10/01 02:49:49;;;;;;;4.07;2.30;;;15.10;99.90;;;;;;5038411;28;20523;-53
2023/10/01 02:52:17;;;;;;;4.90;2.97;;;15.10;99.90;;;;;;5037035;28;20956;-51
2023/10/01 02:54:43;;;;;;;7.37;3.97;;;15.10;99.90;;;;;;5038146;28;20480;-52
2023/10/01 02:57:23;;;;;;;7.53;2.40;;;15.10;99.90;;;;;;5037851;28;20502;-51
2023/10/01 03:00:20;;;;;;;7.97;3.00;;;15.10;99.90;;;;;;5041533;28;20428;-54
2023/10/01 03:02:51;;;;;;;3.70;2.57;;;15.20;99.90;;;;;;5042234;28;20463;-53
2023/10/01 03:05:28;;;;;;;3.83;2.80;;;15.10;99.90;;;;;;5041950;28;20471;-52
2023/10/01 03:07:55;;;;;;;2.80;2.03;;;15.10;99.90;;;;;;5041166;28;20455;-53
2023/10/01 03:10:31;;;;;;;8.07;3.17;;;15.00;99.90;;;;;;5041651;28;20479;-50
2023/10/01 03:13:00;;;;;;;5.10;2.70;;;15.20;99.90;;;;;;5041534;28;20995;-50
2023/10/01 03:15:29;;;;;;;5.83;2.70;;;15.10;99.90;;;;;;5041546;28;20472;-53
2023/10/01 03:17:57;;;;;;;4.63;3.10;;;15.10;99.90;;;;;;5040674;28;20490;-56
2023/10/01 03:23:18;;;;;;;10.60;2.93;;;15.10;99.90;;;;;;5041295;28;20479;-50
2023/10/01 03:25:57;;;;;;;3.63;2.20;;;15.10;99.90;;;;;;5041139;28;20514;-55
2023/10/01 03:28:28;;;;;;;4.33;2.70;;;15.00;99.90;;;;;;5042327;28;20464;-52
2023/10/01 03:31:06;;;;;;;13.10;2.73;;;15.10;99.90;;;;;;5041309;28;20464;-51
2023/10/01 03:33:34;;;;;;;6.83;3.23;;;15.00;99.90;;;;;;5040452;28;20468;-55
2023/10/01 03:36:02;;;;;;;6.73;3.47;;;14.80;99.90;;;;;;5040653;28;20444;-50
2023/10/01 03:38:32;;;;;;;6.53;2.93;;;14.90;99.90;;;;;;5041193;28;20530;-54
2023/10/01 03:41:00;;;;;;;6.10;3.20;;;;;;;;;;5040329;28;20547;-52
2023/10/01 03:43:36;;;;;;;4.53;3.00;;;15.00;99.90;;;;;;5041143;28;20771;-51
2023/10/01 03:49:00;;;;;;;3.03;2.50;;;14.80;99.90;;;;;;5038502;28;20436;-52
2023/10/01 03:51:52;;;;;;;5.60;2.97;;;15.00;99.90;;;;;;5040585;28;20527;-51
2023/10/01 03:54:19;;;;;;;3.43;2.43;;;15.00;99.90;;;;;;5040103;28;20481;-51
2023/10/01 03:56:56;;;;;;;7.73;2.77;;;15.00;99.90;;;;;;5040728;28;20483;-53
2023/10/01 03:59:27;;;;;;;5.60;2.50;;;14.90;99.90;;;;;;5040708;28;20436;-48
2023/10/01 04:02:00;;;;;;;6.07;2.83;;;14.90;99.90;;;;;;5039958;28;20424;-52
2023/10/01 04:04:28;;;;;;;6.93;3.10;;;14.90;99.90;;;;;;5040412;28;20551;-50
2023/10/01 04:06:59;;;;;;;5.20;2.93;;;14.80;99.90;;;;;;5040406;28;20771;-47
2023/10/01 04:09:28;;;;;;;5.87;2.17;;;14.70;99.90;;;;;;5040080;28;20437;-50
2023/10/01 04:12:18;;;;;;;5.30;3.23;;;14.90;99.90;;;;;;5045529;28;20524;-51
2023/10/01 04:14:48;;;;;;;6.63;2.60;;;14.90;99.90;;;;;;5044745;28;20467;-50
2023/10/01 04:17:17;;;;;;;12.70;3.53;;;14.90;99.90;;;;;;5044875;28;20495;-52
2023/10/01 04:19:48;;;;;;;10.40;3.00;;;14.80;99.90;;;;;;5045525;28;20444;-53
2023/10/01 04:22:15;;;;;;;6.80;3.17;;;;;;;;;;5044801;28;20437;-47
2023/10/01 04:24:43;;;;;;;8.17;2.93;;;;;;;;;;5044594;28;20420;-49
2023/10/01 04:27:23;;;;;;;8.80;3.03;;;14.80;99.90;;;;;;5044503;28;20953;-49
2023/10/01 04:29:57;;;;;;;5.83;3.10;;;15.00;99.90;;;;;;5043944;28;20475;-52
2023/10/01 04:32:27;;;;;;;4.40;2.23;;;;;;;;;;5044611;28;20500;-53
2023/10/01 04:34:54;;;;;;;3.77;2.63;;;14.70;99.90;;;;;;5044285;28;20575;-53
2023/10/01 04:37:36;;;;;;;4.63;3.10;;;14.80;99.90;;;;;;5045043;28;20444;-50
2023/10/01 04:40:06;;;;;;;5.03;3.00;;;14.70;99.90;;;;;;5045173;28;20428;-49
2023/10/01 04:42:37;;;;;;;6.90;3.23;;;15.10;99.90;;;;;;5044634;28;20476;-53
2023/10/01 04:45:22;;;;;;;7.70;3.73;;;14.90;99.90;;;;;;5045219;28;20428;-51
2023/10/01 04:47:55;;;;;;;6.23;3.40;;;14.90;99.90;;;;;;5044301;28;20499;-51
2023/10/01 04:50:24;;;;;;;6.43;3.20;;;14.90;99.90;;;;;;5044194;28;20524;-48
2023/10/01 04:52:51;;;;;;;4.70;3.10;;;14.80;99.90;;;;;;5044435;28;20487;-51
2023/10/01 04:55:17;;;;;;;5.73;3.43;;;14.70;99.90;;;;;;5043996;28;20562;-50
2023/10/01 04:57:45;;;;;;;7.67;2.90;;;15.00;99.90;;;;;;5044461;28;20463;-47
2023/10/01 05:00:14;;;;;;;3.77;2.73;;;15.00;99.90;;;;;;5044065;28;20483;-51
2023/10/01 05:02:46;;;;;;;3.23;2.90;;;;;;;;;;5043205;28;20456;-52
2023/10/01 05:05:16;;;;;;;4.33;2.97;;;15.10;99.90;;;;;;5043515;28;20893;-51
2023/10/01 05:07:45;;;;;;;13.50;4.27;;;;;;;;;;5043566;28;20448;-47
2023/10/01 05:10:12;;;;;;;7.53;4.00;;;14.90;99.90;;;;;;5043988;28;20444;-50
2023/10/01 05:12:44;;;;;;;10.17;3.17;;;14.90;99.90;;;;;;5043512;28;20506;-51
2023/10/01 05:15:21;;;;;;;3.43;3.00;;;14.70;99.90;;;;;;5043491;28;20503;-52
2023/10/01 05:17:48;;;;;;;6.13;4.17;;;14.60;99.90;;;;;;5043688;28;20463;-50
2023/10/01 05:20:15;;;;;;;5.80;3.93;;;15.00;99.90;;;;;;5044115;28;20488;-52
2023/10/01 05:22:50;;;;;;;5.17;2.97;;;15.00;99.90;;;;;;5044171;28;20448;-52
2023/10/01 05:25:19;;;;;;;5.67;3.20;;;14.80;99.90;;;;;;5043475;28;20920;-52
2023/10/01 05:27:46;;;;;;;6.30;2.70;;;14.80;99.90;;;;;;5044294;28;20523;-54
2023/10/01 05:32:58;;;;;;;9.30;3.17;;;15.10;99.90;;;;;;5043958;28;20433;-54
2023/10/01 05:35:28;;;;;;;6.30;3.70;;;;;;;;;;5043946;28;21032;-54
2023/10/01 05:37:55;;;;;;;5.40;3.83;;;15.10;99.90;;;;;;5043862;28;20502;-53
2023/10/01 05:40:29;;;;;;;3.13;2.30;;;15.00;99.90;;;;;;5043209;28;20471;-50
2023/10/01 05:43:12;;;;;;;3.70;2.63;;;15.10;99.90;;;;;;5042768;28;20475;-52
2023/10/01 05:45:41;;;;;;;5.27;2.97;;;15.40;99.90;;;;;;5043079;28;20512;-49
2023/10/01 05:48:10;;;;;;;8.40;3.17;;;15.10;99.90;;;;;;5043358;28;20455;-53
2023/10/01 05:50:39;;;;;;;4.73;2.77;;;15.20;99.90;;;;;;5043004;28;20491;-53
2023/10/01 05:53:09;;;;;;;9.60;3.50;;;15.00;99.90;;;;;;5042787;28;20512;-50
2023/10/01 05:55:37;;;;;;;7.07;3.20;;;;;;;;;;5043295;28;20502;-51
2023/10/01 05:58:16;;;;;;;5.73;2.70;;;15.30;99.90;;;;;;5043056;28;20465;-52
2023/10/01 06:00:50;;;;;;;4.53;2.80;;;15.40;99.90;;;;;;5042890;28;20432;-53
2023/10/01 06:03:18;;;;;;;7.23;3.13;;;15.30;99.90;;;;;;5042745;28;20432;-51
2023/10/01 06:05:46;;;;;;;4.63;2.97;;;15.10;99.90;;;;;;5042512;28;20451;-50
2023/10/01 06:08:15;;;;;;;4.63;2.83;;;;;;;;;;5041873;28;20472;-54
2023/10/01 06:10:48;;;;;;;6.47;2.80;;;15.40;99.90;;;;;;5041407;28;20444;-49
2023/10/01 06:13:17;;;;;;;3.80;3.37;;;15.30;99.90;;;;;;5041536;28;20468;-54
2023/10/01 06:15:45;;;;;;;5.03;2.87;;;15.40;99.90;;;;;;5041930;28;20479;-51
2023/10/01 06:18:13;;;;;;;6.47;2.90;;;;;;;;;;5042341;28;20436;-52
2023/10/01 06:20:42;;;;;;;6.83;2.90;;;15.50;99.90;;;;;;5042193;28;20512;-46
2023/10/01 06:23:09;;;;;;;8.23;3.47;;;15.50;99.90;;;;;;5042306;28;20516;-47
2023/10/01 06:25:41;;;;;;;5.77;3.40;;;15.50;99.90;;;;;;5041909;28;20428;-49
2023/10/01 06:28:09;;;;;;;7.83;3.27;;;15.50;99.90;;;;;;5041815;28;20416;-49
2023/10/01 06:30:39;;;;;;;9.03;3.70;;;15.80;99.90;;;;;;5041386;28;20468;-50
2023/10/01 06:33:09;;;;;;;8.27;3.60;;;15.60;99.90;;;;;;5042976;28;20436;-54
2023/10/01 06:35:59;;;;;;;7.93;4.00;;;15.70;99.90;;;;;;5046250;28;20523;-53
2023/10/01 06:38:26;;;;;;;5.13;3.30;;;15.90;99.90;;;;;;5050881;28;20436;-50
2023/10/01 06:40:53;;;;;;;6.80;3.37;;;16.00;99.90;;;;;;5056862;28;20432;-50
2023/10/01 06:43:20;;;;;;;4.90;2.70;;;15.90;99.90;;;;;;5050850;28;20498;-54
2023/10/01 06:45:49;;;;;;;7.83;3.30;;;16.00;99.90;;;;;;5046515;28;20448;-52
2023/10/01 06:48:24;;;;;;;5.80;3.33;;;16.20;99.90;;;;;;5044933;28;20448;-54
2023/10/01 06:50:50;;;;;;;6.07;3.47;;;16.10;99.90;;;;;;5046007;28;20451;-54
2023/10/01 06:53:17;;;;;;;4.27;2.87;;;16.10;99.90;;;;;;5045237;28;20506;-53
2023/10/01 06:55:47;;;;;;;5.30;3.50;;;16.30;99.90;;;;;;5045138;28;20475;-52
2023/10/01 06:58:14;;;;;;;6.40;3.07;;;16.20;99.90;;;;;;5044755;28;20475;-53
2023/10/01 07:00:44;;;;;;;7.10;4.60;;;;;;;;;;5045411;28;20467;-53
2023/10/01 07:03:21;;;;;;;5.13;3.50;;;16.40;99.90;;;;;;5044485;28;20476;-54
2023/10/01 07:05:51;;;;;;;8.57;3.10;;;16.50;99.90;;;;;;5044563;28;20494;-53
2023/10/01 07:08:19;;;;;;;7.07;3.40;;;;;;;;;;5044730;28;20811;-54
2023/10/01 07:10:50;;;;;;;6.90;3.70;;;16.60;99.90;;;;;;5043711;28;20475;-53
2023/10/01 07:13:17;;;;;;;5.10;3.07;;;16.80;99.90;;;;;;5043760;28;20486;-50
2023/10/01 07:15:46;;;;;;;9.30;3.57;;;16.70;99.90;;;;;;5043357;28;20555;-50
2023/10/01 07:18:19;;;;;;;10.40;4.27;;;16.70;99.90;;;;;;5044763;28;20428;-55
2023/10/01 07:20:49;;;;;;;3.77;3.13;;;;;;;;;;5044133;28;20788;-52
2023/10/01 07:23:21;;;;;;;7.73;3.40;;;16.90;99.90;;;;;;5043896;28;20420;-52
2023/10/01 07:25:49;;;;;;;5.13;3.33;;;16.90;99.90;;;;;;5043826;28;20880;-52
2023/10/01 07:28:18;;;;;;;8.97;3.60;;;16.90;99.90;;;;;;5043210;28;20492;-53
2023/10/01 07:30:46;;;;;;;8.60;3.53;;;17.00;99.90;;;;;;5044010;28;20440;-53
2023/10/01 07:33:17;;;;;;;7.43;2.97;;;16.90;99.90;;;;;;5044356;28;20444;-52
2023/10/01 07:35:45;;;;;;;4.07;3.30;;;17.00;99.90;;;;;;5043364;28;20479;-51
2023/10/01 07:38:14;;;;;;;8.50;4.23;;;17.10;99.90;;;;;;5042892;28;20459;-53
2023/10/01 07:40:57;;;;;;;6.23;3.13;;;17.10;99.90;;;;;;5044671;28;20476;-54
2023/10/01 07:43:25;;;;;;;6.23;3.23;;;17.00;99.90;;;;;;5048853;28;20436;-53
2023/10/01 07:45:59;;;;;;;4.50;3.70;;;17.10;99.90;;;;;;5052016;28;20432;-50
2023/10/01 07:48:28;;;;;;;4.63;3.43;;;17.10;99.90;;;;;;5052524;28;20472;-51
2023/10/01 07:50:55;;;;;;;4.97;3.30;;;17.20;99.90;;;;;;5051202;28;20454;-53
2023/10/01 07:53:23;;;;;;;5.10;3.30;;;16.90;99.90;;;;;;5047645;28;20470;-50
2023/10/01 07:55:53;;;;;;;15.17;4.00;;;17.20;99.90;;;;;;5042965;28;20480;-53
2023/10/01 07:58:25;;;;;;;3.57;3.20;;;17.30;99.90;;;;;;5043061;28;20444;-51
2023/10/01 08:00:59;;;;;;;5.03;3.50;;;17.40;99.90;;;;;;5040962;28;20483;-52
2023/10/01 08:03:32;;;;;;;6.70;3.30;;;17.50;99.90;;;;;;5036685;28;20424;-54
2023/10/01 08:06:10;;;;;;;5.60;3.47;;;17.70;99.90;;;;;;5037703;28;20920;-52
2023/10/01 08:08:37;;;;;;;6.10;3.43;;;17.90;99.90;;;;;;5036935;28;20475;-49
2023/10/01 08:11:37;;;;;;;5.30;3.67;;;18.10;99.90;;;;;;5036920;28;20444;-54
2023/10/01 08:13:55;;;;;;;6.60;3.27;;;18.30;99.90;;;;;;5036279;28;20964;-47
2023/10/01 08:16:23;;;;;;;6.90;3.73;;;18.30;99.90;;;;;;5038484;28;20557;-50
2023/10/01 08:18:51;;;;;;;9.63;2.57;;;18.30;99.90;;;;;;5039286;28;20491;-50
2023/10/01 08:21:18;;;;;;;8.23;3.63;;;18.20;99.90;;;;;;5039128;28;20482;-52
2023/10/01 08:23:48;;;;;;;11.60;3.23;;;18.10;99.90;;;;;;5041637;28;20479;-52
2023/10/01 08:29:07;;;;;;;9.00;3.00;;;18.00;99.90;;;;;;5035814;28;20894;-52
2023/10/01 08:31:43;;;;;;;7.90;3.70;;;18.10;99.90;;;;;;5041784;28;20511;-54
2023/10/01 08:36:54;;;;;;;7.67;3.30;;;;;;;;;;5039941;28;20480;-48
2023/10/01 08:39:22;;;;;;;6.53;3.73;;;17.90;99.90;;;;;;5042150;28;20428;-49
2023/10/01 08:41:56;;;;;;;7.97;3.60;;;18.40;99.90;;;;;;5042189;28;20556;-47
2023/10/01 08:44:30;;;;;;;4.37;3.27;;;17.80;99.90;;;;;;5041341;28;20470;-52
2023/10/01 08:47:01;;;;;;;3.13;2.80;;;18.50;99.90;;;;;;5041607;28;20428;-52
2023/10/01 08:49:41;;;;;;;6.53;3.57;;;17.90;99.90;;;;;;5042299;28;20805;-53
2023/10/01 08:52:21;;;;;;;5.10;3.30;;;18.00;99.90;;;;;;5041729;28;20527;-54
2023/10/01 08:54:53;;;;;;;5.17;3.30;;;18.10;99.90;;;;;;5040698;28;20472;-50
2023/10/01 08:57:36;;;;;;;4.70;3.20;;;18.20;99.90;;;;;;5040915;28;20458;-54
2023/10/01 09:00:17;;;;;;;4.87;2.70;;;18.20;99.90;;;;;;5040971;28;20523;-52
2023/10/01 09:02:50;;;;;;;7.23;3.53;;;18.30;99.90;;;;;;5041117;28;20429;-52
2023/10/01 09:05:23;;;;;;;6.63;4.50;;;18.40;99.90;;;;;;5041502;28;20425;-54
2023/10/01 09:08:14;;;;;;;5.30;3.00;;;18.50;99.90;;;;;;5041048;28;20467;-50
2023/10/01 09:10:39;;;;;;;6.57;3.20;;;19.20;99.90;;;;;;5041442;28;20443;-54
2023/10/01 09:13:13;;;;;;;5.40;3.10;;;18.50;99.90;;;;;;5040747;28;20443;-54
2023/10/01 09:15:43;;;;;;;8.27;3.30;;;18.50;99.90;;;;;;5036138;28;20468;-48
2023/10/01 09:18:11;;;;;;;6.03;3.40;;;;;;;;;;5036027;28;20997;-52
2023/10/01 09:20:40;;;;;;;7.57;4.50;;;18.60;99.90;;;;;;5035065;28;20468;-55
2023/10/01 09:23:07;;;;;;;3.80;3.30;;;18.60;99.90;;;;;;5036167;28;20451;-52
2023/10/01 09:25:34;;;;;;;7.33;3.77;;;18.70;99.90;;;;;;5039419;28;20436;-49
2023/10/01 09:28:19;;;;;;;5.50;2.97;;;18.80;99.90;;;;;;5040358;28;20479;-54
2023/10/01 09:31:01;;;;;;;6.50;3.67;;;18.70;99.90;;;;;;5040504;28;20494;-54
2023/10/01 09:33:29;;;;;;;5.87;3.73;;;19.10;99.90;;;;;;5041400;28;20432;-53
2023/10/01 09:36:00;;;;;;;6.20;3.57;;;19.10;99.90;;;;;;5039584;28;20525;-51
2023/10/01 09:38:30;;;;;;;6.77;3.80;;;19.10;99.90;;;;;;5040266;28;20846;-52
2023/10/01 09:40:58;;;;;;;5.40;3.70;;;19.20;99.90;;;;;;5039932;28;20500;-54
2023/10/01 09:43:27;;;;;;;5.00;3.10;;;20.10;99.90;;;;;;5040025;28;20471;-53
2023/10/01 09:45:57;;;;;;;5.63;3.40;;;20.40;99.90;;;;;;5039413;28;20458;-52
2023/10/01 09:48:35;;;;;;;6.27;3.17;;;20.60;99.90;;;;;;5038923;28;20448;-53
2023/10/01 09:51:07;;;;;;;6.43;3.50;;;21.10;99.90;;;;;;5038839;28;20439;-54
2023/10/01 09:53:50;;;;;;;3.90;3.27;;;21.60;99.90;;;;;;5039215;28;20467;-52
2023/10/01 09:56:26;;;;;;;6.13;3.67;;;22.00;99.90;;;;;;5038823;28;20952;-52
2023/10/01 09:58:58;;;;;;;8.40;3.87;;;21.90;99.90;;;;;;5038983;28;20428;-53
2023/10/01 10:01:27;;;;;;;6.33;4.03;;;21.70;99.90;;;;;;5039136;28;20773;-53
2023/10/01 10:04:03;;;;;;;4.03;3.50;;;22.00;99.90;;;;;;5039602;28;20857;-52
2023/10/01 10:06:31;;;;;;;4.30;3.50;;;21.90;99.90;;;;;;5038837;28;20856;-48
2023/10/01 10:09:05;;;;;;;8.03;3.90;;;21.60;99.90;;;;;;5039324;28;20443;-49
2023/10/01 10:11:36;;;;;;;6.03;3.33;;;21.50;99.90;;;;;;5038477;28;20428;-54
2023/10/01 10:14:26;;;;;;;4.80;3.30;;;21.30;99.90;;;;;;5040033;28;20464;-53
2023/10/01 10:16:57;;;;;;;4.83;3.50;;;21.50;99.90;;;;;;5045263;28;20480;-53
2023/10/01 10:19:27;;;;;;;4.37;3.03;;;22.30;99.90;;;;;;5039832;28;20844;-53
2023/10/01 10:22:17;;;;;;;5.67;3.93;;;22.70;99.90;;;;;;5038221;28;20530;-52
2023/10/01 10:24:54;;;;;;;4.07;3.07;;;23.90;99.90;;;;;;5034227;28;20905;-54
2023/10/01 10:27:47;;;;;;;3.77;3.07;;;23.60;99.90;;;;;;5038338;28;20448;-50
2023/10/01 10:30:21;;;;;;;6.40;3.50;;;24.40;99.90;;;;;;5038256;28;20789;-52
2023/10/01 10:33:38;;;;;;;8.97;5.63;;;25.00;99.90;;;;;;5038211;28;20431;-51
2023/10/01 10:36:51;;;;;;;6.17;3.70;;;25.20;97.40;;;;;;5038176;28;20474;-53
2023/10/01 10:40:26;;;;;;;4.67;3.30;;;25.00;94.90;;;;;;5037869;28;20456;-51
2023/10/01 10:43:19;;;;;;;7.33;3.80;;;24.00;94.90;;;;;;5037634;28;20440;-51
2023/10/01 10:46:04;;;;;;;7.70;3.20;;;24.00;95.30;;;;;;5037749;28;20429;-49
2023/10/01 10:48:59;;;;;;;4.20;3.03;;;23.70;96.00;;;;;;5038654;28;20635;-52
2023/10/01 10:51:52;;;;;;;5.63;3.50;;;23.40;96.80;;;;;;5037914;28;20452;-50
2023/10/01 10:54:31;;;;;;;4.83;3.03;;;23.40;97.60;;;;;;5037703;28;20486;-50
2023/10/01 10:56:59;;;;;;;5.20;3.20;;;23.40;97.80;;;;;;5037676;28;20507;-51
2023/10/01 10:59:30;;;;;;;9.20;6.00;;;23.30;99.20;;;;;;5037590;28;20532;-52
2023/10/01 11:01:58;;;;;;;7.70;3.67;;;23.50;99.90;;;;;;5037516;28;20468;-54
2023/10/01 11:04:30;;;;;;;5.50;3.33;;;23.30;99.90;;;;;;5037386;28;20428;-54
2023/10/01 11:07:04;;;;;;;5.30;3.40;;;23.30;96.90;;;;;;5036951;28;20460;-54
2023/10/01 11:09:33;;;;;;;5.70;3.40;;;23.20;98.10;;;;;;5037595;28;20458;-52
2023/10/01 11:12:05;;;;;;;6.43;3.60;;;23.10;97.90;;;;;;5037158;28;20448;-51
2023/10/01 11:14:34;;;;;;;7.10;3.47;;;22.90;98.10;;;;;;5037735;28;20809;-54
2023/10/01 11:17:01;;;;;;;6.83;3.50;;;22.90;99.90;;;;;;5037175;28;20491;-53
2023/10/01 11:19:35;;;;;;;9.13;4.87;;;22.70;99.30;;;;;;5039318;28;20472;-53
2023/10/01 11:22:04;;;;;;;5.60;3.90;;;22.60;99.20;;;;;;5041239;28;20980;-50
2023/10/01 11:24:37;;;;;;;7.93;3.80;;;22.70;99.20;;;;;;5041059;28;20519;-53
2023/10/01 11:27:18;;;;;;;5.80;4.00;;;22.60;99.40;;;;;;5041152;28;20495;-53
2023/10/01 11:30:12;;;;;;;5.13;3.67;;;22.60;98.80;;;;;;5041011;28;20428;-54
2023/10/01 11:33:01;;;;;;;9.07;4.37;;;22.50;99.80;;;;;;5040874;28;20471;-51
2023/10/01 11:35:31;;;;;;;5.60;4.10;;;22.20;99.90;;;;;;5040548;28;20421;-52
2023/10/01 11:38:07;;;;;;;8.60;3.90;;;22.10;99.20;;;;;;5040836;28;20448;-52
2023/10/01 11:43:23;;;;;;;7.10;4.00;;;22.00;99.90;;;;;;5041074;28;20466;-51
2023/10/01 11:46:18;;;;;;;5.73;3.77;;;21.90;99.90;;;;;;5040749;28;20490;-48
2023/10/01 11:48:56;;;;;;;6.23;4.80;;;21.90;99.10;;;;;;5040938;28;20436;-50
2023/10/01 11:51:30;;;;;;;7.13;4.10;;;21.90;99.40;;;;;;5041178;28;20487;-52
2023/10/01 11:54:09;;;;;;;7.20;4.60;;;21.70;99.90;;;;;;5040650;28;20421;-52
2023/10/01 11:56:37;;;;;;;6.87;3.43;;;22.00;99.90;;;;;;5041157;28;20792;-54
2023/10/01 11:59:06;;;;;;;5.53;3.70;;;22.20;99.90;;;;;;5040382;28;20437;-53
2023/10/01 12:01:39;;;;;;;13.83;4.83;;;21.60;99.90;;;;;;5041045;28;20466;-48
2023/10/01 12:04:07;;;;;;;5.10;3.80;;;21.70;99.90;;;;;;5040629;28;20478;-51
2023/10/01 12:06:35;;;;;;;7.83;3.90;;;21.60;99.90;;;;;;5040293;28;20472;-48
2023/10/01 12:09:02;;;;;;;13.47;3.77;;;21.50;99.90;;;;;;5041234;28;20797;-51
2023/10/01 12:11:31;;;;;;;7.30;3.90;;;21.50;99.90;;;;;;5040427;28;20429;-53
2023/10/01 12:14:08;;;;;;;6.20;3.63;;;21.60;99.90;;;;;;5040784;28;20928;-51
2023/10/01 12:16:39;;;;;;;7.03;4.83;;;21.50;99.90;;;;;;5040461;28;20491;-49
2023/10/01 12:19:23;;;;;;;4.40;3.30;;;21.40;99.90;;;;;;5040584;28;20529;-50
2023/10/01 12:22:05;;;;;;;6.10;3.60;;;21.30;99.90;;;;;;5040882;28;20514;-51
2023/10/01 12:24:39;;;;;;;6.47;3.23;;;21.20;99.90;;;;;;5040678;28;20583;-51
2023/10/01 12:27:08;;;;;;;6.97;4.90;;;21.20;99.90;;;;;;5040450;28;20420;-54
2023/10/01 12:29:43;;;;;;;10.97;6.30;;;21.20;99.90;;;;;;5040283;28;20439;-51
2023/10/01 12:32:14;;;;;;;8.27;3.73;;;20.80;99.90;;;;;;5039401;28;20460;-54
2023/10/01 12:34:42;;;;;;;4.87;4.50;;;21.10;99.90;;;;;;5040244;28;20559;-53
2023/10/01 12:37:35;;;;;;;4.83;4.03;;;21.10;99.90;;;;;;5039422;28;20476;-50
2023/10/01 12:42:39;;;;;;;6.67;3.07;;;;;;;;;;5040693;28;20431;-53
2023/10/01 12:45:14;;;;;;;5.17;2.80;;;20.90;99.90;;;;;;5039664;28;20516;-54
2023/10/01 12:47:50;;;;;;;8.23;3.50;;;21.10;99.90;;;;;;5039914;28;20431;-53
2023/10/01 12:50:26;;;;;;;6.90;3.67;;;21.10;99.90;;;;;;5039638;28;20464;-55
2023/10/01 12:53:19;;;;;;;4.90;3.13;;;21.10;99.90;;;;;;5039947;28;20531;-54
2023/10/01 12:55:51;;;;;;;3.30;2.80;;;21.20;99.90;;;;;;5039624;28;20452;-51
2023/10/01 12:58:20;;;;;;;10.20;5.20;;;21.20;99.90;;;;;;5040391;28;20902;-52
2023/10/01 13:00:46;;;;;;;6.20;3.87;;;21.20;99.90;;;;;;5039669;28;20433;-52
2023/10/01 13:03:19;;;;;;;8.77;3.07;;;21.20;99.90;;;;;;5038900;28;20988;-52
2023/10/01 13:05:47;;;;;;;4.53;2.90;;;21.20;99.90;;;;;;5038963;28;20478;-54
2023/10/01 13:08:27;;;;;;;5.00;2.83;;;21.00;99.90;;;;;;5039398;28;20889;-50
2023/10/01 13:10:54;;;;;;;7.13;3.13;;;21.10;99.90;;;;;;5039716;28;20519;-50
2023/10/01 13:13:29;;;;;;;10.60;4.07;;;20.80;99.90;;;;;;5039481;28;20504;-53
2023/10/01 13:15:57;;;;;;;6.07;3.77;;;21.20;99.90;;;;;;5039502;28;20840;-53
2023/10/01 13:18:29;;;;;;;5.57;3.37;;;21.00;99.90;;;;;;5039593;28;20460;-53
2023/10/01 13:21:06;;;;;;;9.40;4.27;;;20.80;99.90;;;;;;5039391;28;20436;-53
2023/10/01 13:23:42;;;;;;;7.20;4.30;;;20.70;99.90;;;;;;5039225;28;20955;-54
2023/10/01 13:26:14;;;;;;;9.57;3.83;;;20.60;99.90;;;;;;5039033;28;20472;-53
2023/10/01 13:28:46;;;;;;;8.23;3.07;;;20.70;99.90;;;;;;5039346;28;20437;-48
2023/10/01 13:31:35;;;;;;;5.53;3.80;;;20.60;99.90;;;;;;5039322;28;20499;-47
2023/10/01 13:34:10;;;;;;;10.17;4.40;;;20.50;99.90;;;;;;5039881;28;20436;-52
2023/10/01 13:36:50;;;;;;;4.93;3.27;;;20.50;99.90;;;;;;5039429;28;20471;-52
2023/10/01 13:39:25;;;;;;;5.50;2.97;;;20.50;99.90;;;;;;5039448;28;20472;-54
2023/10/01 14:12:09;;;;;;;7.83;3.33;;;20.60;99.90;;;;;;5038467;28;20496;-54
2023/10/01 14:14:36;;;;;;;6.73;3.00;;;20.50;99.90;;;;;;5038750;28;20451;-54